createdAt,value
2022-09-28T00:01:22.515Z,9.63
2022-09-28T00:03:52.737Z,9.71
2022-09-28T00:06:24.402Z,9.57
2022-09-28T00:08:52.712Z,9.60
2022-09-28T00:11:22.391Z,9.54
2022-09-28T00:13:52.716Z,9.60
2022-09-28T00:16:23.512Z,9.64
2022-09-28T00:18:52.446Z,9.76
2022-09-28T00:21:22.714Z,9.68
2022-09-28T00:24:10.950Z,9.76
2022-09-28T00:26:40.539Z,9.75
2022-09-28T00:29:16.613Z,9.69
2022-09-28T00:31:44.841Z,9.75
2022-09-28T00:34:13.418Z,9.88
2022-09-28T00:36:45.858Z,9.76
2022-09-28T00:39:15.737Z,9.81
2022-09-28T00:41:44.219Z,9.93
2022-09-28T00:44:36.525Z,9.93
2022-09-28T00:47:14.799Z,9.91
2022-09-28T00:49:46.520Z,9.95
2022-09-28T00:52:18.402Z,9.95
2022-09-28T00:54:48.491Z,9.91
2022-09-28T00:57:17.062Z,10.06
2022-09-28T00:59:46.382Z,10.10
2022-09-28T01:02:14.321Z,10.14
2022-09-28T01:04:42.630Z,10.06
2022-09-28T01:07:11.276Z,10.20
2022-09-28T01:09:40.628Z,10.07
2022-09-28T01:12:09.135Z,10.16
2022-09-28T01:14:37.045Z,10.11
2022-09-28T01:17:10.419Z,10.15
2022-09-28T01:20:13.114Z,10.30
2022-09-28T01:23:21.426Z,10.40
2022-09-28T01:25:55.427Z,10.33
2022-09-28T01:28:29.009Z,10.34
2022-09-28T01:31:00.919Z,10.32
2022-09-28T01:33:35.586Z,10.23
2022-09-28T01:36:08.791Z,10.06
2022-09-28T01:38:42.759Z,10.04
2022-09-28T01:41:11.397Z,10.10
2022-09-28T01:43:47.009Z,10.18
2022-09-28T01:46:18.361Z,10.19
2022-09-28T01:48:53.175Z,10.16
2022-09-28T01:51:26.948Z,10.18
2022-09-28T01:53:58.758Z,10.20
2022-09-28T01:56:33.437Z,10.31
2022-09-28T01:59:09.417Z,10.29
2022-09-28T02:01:41.467Z,10.32
2022-09-28T02:04:14.962Z,10.44
2022-09-28T02:06:53.293Z,10.61
2022-09-28T02:09:28.505Z,10.39
2022-09-28T02:12:06.877Z,10.37
2022-09-28T02:14:40.620Z,10.41
2022-09-28T02:17:08.678Z,10.35
2022-09-28T02:19:36.948Z,10.34
2022-09-28T02:22:14.982Z,10.34
2022-09-28T02:24:49.180Z,10.37
2022-09-28T02:27:32.953Z,10.35
2022-09-28T02:30:02.676Z,10.39
2022-09-28T02:32:33.385Z,10.42
2022-09-28T02:35:01.793Z,10.54
2022-09-28T02:37:30.203Z,10.42
2022-09-28T02:39:58.149Z,10.12
2022-09-28T02:42:32.803Z,10.08
2022-09-28T02:45:15.496Z,10.22
2022-09-28T02:47:56.733Z,10.49
2022-09-28T02:50:35.864Z,10.48
2022-09-28T02:53:25.627Z,10.32
2022-09-28T02:56:11.540Z,10.36
2022-09-28T02:58:53.207Z,10.38
2022-09-28T03:01:31.420Z,10.46
2022-09-28T03:04:08.951Z,9.82
2022-09-28T03:06:42.442Z,9.51
2022-09-28T03:09:19.657Z,9.13
2022-09-28T03:11:52.339Z,9.10
2022-09-28T03:14:20.951Z,9.08
2022-09-28T03:16:57.288Z,9.15
2022-09-28T03:19:28.835Z,9.27
2022-09-28T03:21:57.043Z,9.27
2022-09-28T03:24:25.192Z,9.29
2022-09-28T03:26:53.210Z,9.34
2022-09-28T03:29:21.507Z,9.25
2022-09-28T03:31:55.453Z,9.39
2022-09-28T03:34:25.291Z,9.53
2022-09-28T03:36:53.620Z,9.13
2022-09-28T03:39:21.596Z,9.14
2022-09-28T03:41:49.888Z,9.25
2022-09-28T03:44:20.377Z,9.51
2022-09-28T03:46:49.249Z,9.55
2022-09-28T03:49:17.745Z,9.68
2022-09-28T03:51:48.188Z,9.75
2022-09-28T03:54:18.993Z,9.83
2022-09-28T03:56:47.308Z,9.72
2022-09-28T03:59:15.680Z,9.62
2022-09-28T04:01:43.712Z,9.54
2022-09-28T04:04:13.412Z,9.53
2022-09-28T04:06:41.788Z,9.54
2022-09-28T04:09:12.599Z,9.72
2022-09-28T04:12:02.435Z,9.81
2022-09-28T04:14:31.082Z,9.57
2022-09-28T04:16:59.156Z,9.35
2022-09-28T04:19:29.216Z,9.25
2022-09-28T04:22:29.581Z,9.27
2022-09-28T04:24:59.257Z,9.34
2022-09-28T04:27:44.775Z,9.28
2022-09-28T04:30:13.643Z,9.11
2022-09-28T04:32:47.383Z,9.07
2022-09-28T04:35:15.884Z,9.10
2022-09-28T04:37:43.969Z,9.16
2022-09-28T04:40:14.177Z,9.11
2022-09-28T04:42:42.701Z,9.07
2022-09-28T04:45:11.746Z,9.00
2022-09-28T04:47:45.268Z,9.04
2022-09-28T04:50:29.159Z,9.13
2022-09-28T04:53:15.886Z,9.29
2022-09-28T04:55:45.577Z,9.19
2022-09-28T04:58:13.786Z,9.00
2022-09-28T05:00:42.240Z,8.96
2022-09-28T05:03:22.626Z,8.95
2022-09-28T05:06:17.426Z,9.09
2022-09-28T05:08:47.328Z,9.22
2022-09-28T05:11:19.978Z,9.21
2022-09-28T05:13:50.400Z,9.21
2022-09-28T05:16:20.452Z,9.01
2022-09-28T05:19:23.715Z,8.87
2022-09-28T05:21:53.295Z,8.85
2022-09-28T05:24:21.921Z,8.78
2022-09-28T05:26:56.031Z,8.88
2022-09-28T05:29:30.095Z,8.82
2022-09-28T05:32:18.616Z,8.74
2022-09-28T05:35:13.130Z,8.74
2022-09-28T05:37:47.746Z,8.72
2022-09-28T05:40:16.682Z,8.77
2022-09-28T05:42:46.307Z,8.75
2022-09-28T05:45:17.212Z,8.83
2022-09-28T05:47:47.190Z,8.74
2022-09-28T05:50:19.572Z,8.76
2022-09-28T05:52:50.171Z,8.81
2022-09-28T05:55:18.349Z,8.95
2022-09-28T05:57:48.055Z,9.06
2022-09-28T06:00:16.129Z,9.13
2022-09-28T06:02:57.633Z,9.00
2022-09-28T06:05:26.294Z,8.91
2022-09-28T06:07:57.355Z,8.91
2022-09-28T06:10:26.234Z,9.00
2022-09-28T06:13:00.047Z,9.26
2022-09-28T06:15:30.665Z,9.72
2022-09-28T06:18:00.154Z,10.14
2022-09-28T06:20:47.408Z,10.56
2022-09-28T06:23:17.110Z,10.96
2022-09-28T06:25:45.158Z,11.29
2022-09-28T06:28:15.758Z,11.33
2022-09-28T06:30:45.100Z,11.79
2022-09-28T06:33:18.176Z,12.14
2022-09-28T06:35:47.053Z,12.37
2022-09-28T06:38:15.309Z,12.34
2022-09-28T06:40:43.263Z,12.62
2022-09-28T06:43:14.991Z,12.61
2022-09-28T06:46:03.406Z,12.03
2022-09-28T06:48:50.314Z,11.10
2022-09-28T06:51:38.582Z,11.28
2022-09-28T06:54:13.626Z,11.22
2022-09-28T06:56:49.412Z,11.59
2022-09-28T06:59:21.397Z,11.37
2022-09-28T07:01:51.140Z,11.15
2022-09-28T07:04:38.333Z,10.62
2022-09-28T07:07:35.548Z,10.75
2022-09-28T07:10:23.223Z,10.76
2022-09-28T07:13:07.847Z,10.82
2022-09-28T07:15:47.667Z,10.04
2022-09-28T07:18:17.908Z,10.33
2022-09-28T07:20:53.386Z,10.55
2022-09-28T07:23:22.926Z,10.89
2022-09-28T07:26:29.057Z,11.70
2022-09-28T07:29:05.053Z,11.91
2022-09-28T07:31:33.855Z,12.25
2022-09-28T07:34:39.940Z,11.79
2022-09-28T07:37:20.095Z,12.37
2022-09-28T07:40:03.755Z,13.51
2022-09-28T07:42:34.433Z,14.12
2022-09-28T07:45:03.138Z,14.32
2022-09-28T07:47:35.064Z,12.69
2022-09-28T07:50:34.065Z,11.19
2022-09-28T07:53:14.557Z,11.32
2022-09-28T07:55:53.901Z,11.66
2022-09-28T07:58:36.247Z,11.18
2022-09-28T08:01:39.352Z,10.95
2022-09-28T08:04:09.453Z,10.83
2022-09-28T08:06:40.431Z,11.27
2022-09-28T08:09:09.842Z,10.95
2022-09-28T08:12:10.211Z,12.14
2022-09-28T08:14:49.122Z,11.68
2022-09-28T08:17:35.102Z,11.79
2022-09-28T08:20:25.391Z,11.99
2022-09-28T08:22:54.798Z,12.18
2022-09-28T08:25:22.611Z,11.92
2022-09-28T08:27:50.441Z,11.47
2022-09-28T08:30:19.958Z,11.95
2022-09-28T08:33:07.554Z,13.40
2022-09-28T08:35:44.784Z,13.86
2022-09-28T08:38:24.065Z,12.52
2022-09-28T08:41:20.037Z,12.50
2022-09-28T08:44:23.888Z,12.71
2022-09-28T08:47:31.894Z,13.22
2022-09-28T08:50:24.595Z,12.75
2022-09-28T08:53:21.473Z,12.85
2022-09-28T08:56:07.126Z,13.96
2022-09-28T08:58:42.363Z,14.69
2022-09-28T09:01:16.472Z,15.52
2022-09-28T09:03:46.489Z,13.83
2022-09-28T09:06:55.585Z,12.26
2022-09-28T09:09:44.762Z,12.08
2022-09-28T09:12:26.426Z,12.44
2022-09-28T09:15:05.576Z,12.59
2022-09-28T09:17:43.985Z,12.47
2022-09-28T09:20:35.108Z,12.73
2022-09-28T09:23:17.442Z,14.37
2022-09-28T09:25:50.499Z,14.75
2022-09-28T09:28:50.481Z,14.57
2022-09-28T09:31:37.225Z,14.80
2022-09-28T09:34:43.461Z,14.96
2022-09-28T09:38:06.484Z,14.35
2022-09-28T09:41:17.795Z,14.01
2022-09-28T09:44:57.162Z,17.57
2022-09-28T09:47:47.234Z,18.46
2022-09-28T09:50:30.244Z,18.89
2022-09-28T09:53:04.179Z,19.66
2022-09-28T09:55:37.483Z,21.28
2022-09-28T09:58:32.723Z,22.99
2022-09-28T10:01:28.827Z,21.69
2022-09-28T10:04:23.173Z,18.37
2022-09-28T10:06:57.594Z,21.48
2022-09-28T10:09:27.766Z,20.70
2022-09-28T10:12:02.559Z,19.45
2022-09-28T10:14:31.198Z,16.37
2022-09-28T10:17:08.552Z,15.08
2022-09-28T10:20:06.535Z,15.61
2022-09-28T10:22:53.605Z,14.11
2022-09-28T10:25:23.941Z,14.11
2022-09-28T10:27:53.305Z,13.95
2022-09-28T10:30:24.238Z,13.23
2022-09-28T10:33:01.015Z,13.07
2022-09-28T10:35:43.700Z,13.62
2022-09-28T10:38:18.813Z,13.52
2022-09-28T10:41:13.604Z,13.59
2022-09-28T10:44:06.166Z,13.63
2022-09-28T10:46:43.828Z,13.28
2022-09-28T10:49:19.476Z,13.28
2022-09-28T10:51:57.277Z,13.38
2022-09-28T10:54:33.909Z,13.92
2022-09-28T10:57:02.490Z,14.66
2022-09-28T10:59:48.920Z,14.89
2022-09-28T11:02:32.312Z,15.01
2022-09-28T11:05:20.403Z,13.66
2022-09-28T11:07:49.939Z,15.19
2022-09-28T11:10:25.257Z,16.14
2022-09-28T11:12:57.316Z,16.81
2022-09-28T11:15:31.214Z,16.89
2022-09-28T11:18:21.272Z,15.72
2022-09-28T11:20:52.218Z,13.92
2022-09-28T11:23:24.207Z,13.92
2022-09-28T11:26:00.969Z,13.94
2022-09-28T11:28:33.500Z,14.04
2022-09-28T11:31:09.106Z,15.30
2022-09-28T11:34:07.289Z,15.58
2022-09-28T11:37:32.100Z,16.18
2022-09-28T11:40:10.888Z,15.99
2022-09-28T11:42:50.227Z,15.12
2022-09-28T11:45:46.052Z,16.30
2022-09-28T11:48:16.849Z,18.89
2022-09-28T11:50:51.327Z,22.63
2022-09-28T11:53:28.625Z,18.14
2022-09-28T11:56:09.064Z,18.41
2022-09-28T11:58:44.170Z,16.35
2022-09-28T12:01:25.209Z,16.50
2022-09-28T12:04:18.993Z,16.49
2022-09-28T12:06:52.005Z,17.38
2022-09-28T12:09:31.415Z,16.06
2022-09-28T12:12:17.186Z,15.37
2022-09-28T12:14:48.211Z,16.60
2022-09-28T12:17:24.680Z,18.69
2022-09-28T12:19:57.645Z,19.86
2022-09-28T12:22:33.732Z,20.99
2022-09-28T12:25:06.105Z,19.64
2022-09-28T12:27:44.725Z,17.10
2022-09-28T12:30:16.453Z,18.64
2022-09-28T12:32:49.535Z,18.58
2022-09-28T12:35:29.231Z,18.19
2022-09-28T12:38:18.899Z,17.68
2022-09-28T12:40:53.920Z,17.13
2022-09-28T12:43:57.314Z,16.21
2022-09-28T12:46:53.939Z,16.99
2022-09-28T12:55:20.666Z,15.49
2022-09-28T12:58:00.084Z,14.29
2022-09-28T13:00:40.008Z,14.22
2022-09-28T13:03:35.255Z,14.29
2022-09-28T13:06:26.470Z,14.28
2022-09-28T13:09:11.639Z,14.59
2022-09-28T13:11:47.800Z,15.49
2022-09-28T13:14:51.338Z,14.68
2022-09-28T13:17:26.759Z,14.95
2022-09-28T13:19:59.462Z,14.44
2022-09-28T13:22:40.004Z,14.19
2022-09-28T13:25:20.509Z,14.38
2022-09-28T13:27:54.217Z,14.51
2022-09-28T13:30:25.797Z,14.96
2022-09-28T13:32:57.713Z,15.47
2022-09-28T13:35:26.757Z,15.16
2022-09-28T13:38:31.797Z,15.81
2022-09-28T13:41:15.133Z,16.02
2022-09-28T13:44:01.657Z,16.23
2022-09-28T13:46:39.099Z,16.10
2022-09-28T13:49:17.287Z,16.30
2022-09-28T13:51:58.728Z,16.33
2022-09-28T13:54:59.844Z,16.79
2022-09-28T13:57:33.810Z,17.27
2022-09-28T14:00:11.612Z,17.96
2022-09-28T14:02:48.700Z,16.40
2022-09-28T14:05:46.718Z,15.62
2022-09-28T14:08:31.452Z,15.70
2022-09-28T14:11:30.651Z,15.53
2022-09-28T14:14:05.823Z,16.07
2022-09-28T14:16:35.267Z,15.46
2022-09-28T14:19:09.061Z,15.37
2022-09-28T14:21:52.296Z,15.37
2022-09-28T14:24:31.346Z,15.20
2022-09-28T14:27:24.362Z,14.72
2022-09-28T14:30:08.153Z,15.12
2022-09-28T14:32:37.581Z,15.85
2022-09-28T14:35:08.373Z,15.53
2022-09-28T14:37:57.241Z,15.15
2022-09-28T14:40:49.567Z,15.39
2022-09-28T14:43:25.200Z,16.10
2022-09-28T14:46:21.071Z,16.39
2022-09-28T14:48:51.224Z,17.14
2022-09-28T14:52:06.906Z,17.34
2022-09-28T14:54:49.203Z,17.17
2022-09-28T14:57:20.582Z,17.41
2022-09-28T14:59:48.798Z,17.72
2022-09-28T15:02:36.649Z,17.22
2022-09-28T15:05:17.049Z,15.51
2022-09-28T15:07:47.936Z,14.92
2022-09-28T15:10:27.550Z,15.63
2022-09-28T15:12:57.199Z,15.61
2022-09-28T15:15:35.569Z,16.05
2022-09-28T15:18:20.664Z,15.88
2022-09-28T15:20:50.075Z,16.12
2022-09-28T15:23:35.243Z,16.96
2022-09-28T15:26:08.493Z,17.20
2022-09-28T15:28:39.390Z,17.25
2022-09-28T15:31:07.212Z,17.22
2022-09-28T15:33:53.737Z,16.93
2022-09-28T15:36:25.028Z,15.87
2022-09-28T15:38:58.448Z,15.46
2022-09-28T15:41:29.485Z,15.16
2022-09-28T15:44:29.107Z,15.64
2022-09-28T15:47:08.546Z,16.17
2022-09-28T15:49:44.990Z,16.18
2022-09-28T15:52:29.553Z,16.27
2022-09-28T15:54:59.076Z,16.50
2022-09-28T15:57:37.939Z,16.87
2022-09-28T16:00:22.522Z,16.77
2022-09-28T16:03:05.654Z,16.19
2022-09-28T16:05:40.950Z,16.45
2022-09-28T16:08:21.176Z,16.68
2022-09-28T16:10:58.138Z,16.89
2022-09-28T16:13:27.752Z,16.95
2022-09-28T16:15:59.935Z,17.01
2022-09-28T16:18:29.865Z,17.07
2022-09-28T16:21:19.078Z,17.53
2022-09-28T16:23:52.679Z,17.37
2022-09-28T16:26:31.946Z,17.26
2022-09-28T16:29:02.229Z,17.06
2022-09-28T16:31:34.493Z,16.93
2022-09-28T16:34:11.826Z,16.76
2022-09-28T16:36:46.337Z,16.67
2022-09-28T16:39:16.163Z,16.55
2022-09-28T16:41:47.443Z,16.52
2022-09-28T16:44:23.473Z,16.41
2022-09-28T16:46:53.970Z,16.27
2022-09-28T16:49:21.951Z,16.21
2022-09-28T16:51:49.739Z,16.07
2022-09-28T16:54:36.650Z,16.03
2022-09-28T16:57:06.608Z,15.99
2022-09-28T16:59:38.428Z,16.09
2022-09-28T17:02:35.344Z,16.08
2022-09-28T17:05:07.094Z,15.93
2022-09-28T17:07:35.045Z,15.79
2022-09-28T17:10:02.803Z,15.65
2022-09-28T17:12:30.754Z,15.53
2022-09-28T17:15:00.842Z,15.35
2022-09-28T17:17:31.543Z,15.23
2022-09-28T17:19:59.567Z,15.19
2022-09-28T17:22:27.577Z,15.12
2022-09-28T17:24:55.611Z,15.07
2022-09-28T17:27:23.957Z,15.00
2022-09-28T17:29:52.177Z,14.97
2022-09-28T17:32:21.417Z,14.92
2022-09-28T17:35:00.696Z,14.89
2022-09-28T17:37:29.356Z,14.85
2022-09-28T17:39:57.492Z,14.85
2022-09-28T17:42:27.583Z,14.80
2022-09-28T17:44:55.460Z,14.75
2022-09-28T17:47:24.628Z,14.67
2022-09-28T17:49:53.714Z,14.66
2022-09-28T17:52:21.901Z,14.65
2022-09-28T17:54:49.666Z,14.59
2022-09-28T17:57:17.946Z,14.56
2022-09-28T17:59:46.780Z,14.50
2022-09-28T18:02:14.853Z,14.50
2022-09-28T18:04:52.592Z,14.50
2022-09-28T18:07:20.776Z,14.45
2022-09-28T18:09:48.469Z,14.38
2022-09-28T18:12:16.328Z,14.33
2022-09-28T18:14:44.402Z,14.32
2022-09-28T18:17:12.526Z,14.34
2022-09-28T18:19:40.818Z,14.38
2022-09-28T18:22:10.423Z,14.44
2022-09-28T18:24:38.151Z,14.51
2022-09-28T18:27:06.135Z,14.55
2022-09-28T18:29:34.089Z,14.55
2022-09-28T18:32:02.732Z,14.39
2022-09-28T18:34:30.772Z,14.16
2022-09-28T18:36:58.558Z,13.97
2022-09-28T18:39:27.775Z,13.81
2022-09-28T18:41:55.829Z,13.74
2022-09-28T18:44:24.098Z,13.74
2022-09-28T18:46:51.843Z,13.66
2022-09-28T18:49:20.417Z,13.38
2022-09-28T18:51:49.396Z,13.29
2022-09-28T18:54:17.843Z,13.16
2022-09-28T18:56:47.405Z,13.17
2022-09-28T18:59:15.915Z,13.46
2022-09-28T19:01:45.139Z,13.62
2022-09-28T19:04:14.147Z,13.63
2022-09-28T19:06:44.838Z,13.63
2022-09-28T19:09:13.311Z,13.60
2022-09-28T19:11:42.321Z,13.52
2022-09-28T19:14:15.154Z,13.43
2022-09-28T19:16:45.575Z,13.36
2022-09-28T19:19:16.506Z,13.18
2022-09-28T19:21:45.111Z,13.10
2022-09-28T19:24:15.504Z,12.94
2022-09-28T19:26:45.270Z,12.81
2022-09-28T19:29:15.439Z,12.82
2022-09-28T19:31:44.348Z,12.84
2022-09-28T19:34:14.167Z,12.90
2022-09-28T19:36:43.083Z,12.84
2022-09-28T19:39:15.163Z,12.84
2022-09-28T19:41:49.589Z,12.88
2022-09-28T19:44:25.377Z,12.72
2022-09-28T19:46:54.677Z,12.58
2022-09-28T19:49:24.156Z,12.53
2022-09-28T19:52:13.920Z,12.34
2022-09-28T19:54:44.982Z,12.21
2022-09-28T19:57:16.173Z,12.04
2022-09-28T19:59:49.482Z,11.80
2022-09-28T20:02:20.256Z,11.70
2022-09-28T20:04:48.730Z,11.48
2022-09-28T20:07:17.280Z,11.27
2022-09-28T20:09:45.393Z,11.32
2022-09-28T20:12:13.781Z,11.31
2022-09-28T20:14:44.420Z,11.27
2022-09-28T20:17:14.033Z,11.22
2022-09-28T20:19:42.341Z,11.14
2022-09-28T20:22:10.967Z,11.07
2022-09-28T20:24:39.236Z,11.04
2022-09-28T20:27:07.376Z,11.03
2022-09-28T20:29:39.217Z,10.89
2022-09-28T20:32:07.480Z,10.73
2022-09-28T20:34:37.088Z,10.57
2022-09-28T20:37:07.853Z,10.44
2022-09-28T20:39:35.893Z,10.40
2022-09-28T20:42:03.925Z,10.36
2022-09-28T20:44:31.910Z,10.28
2022-09-28T20:47:00.677Z,10.09
2022-09-28T20:49:28.825Z,10.10
2022-09-28T20:51:58.227Z,10.06
2022-09-28T20:54:26.631Z,10.02
2022-09-28T20:56:54.524Z,10.07
2022-09-28T20:59:26.015Z,10.03
2022-09-28T21:01:54.303Z,10.02
2022-09-28T21:04:22.493Z,10.03
2022-09-28T21:06:50.457Z,10.03
2022-09-28T21:09:19.809Z,9.94
2022-09-28T21:11:48.410Z,9.78
2022-09-28T21:14:16.902Z,9.69
2022-09-28T21:16:44.839Z,9.71
2022-09-28T21:19:12.806Z,9.63
2022-09-28T21:21:40.675Z,9.63
2022-09-28T21:24:09.372Z,9.64
2022-09-28T21:26:39.180Z,9.59
2022-09-28T21:29:08.965Z,9.57
2022-09-28T21:31:40.192Z,9.50
2022-09-28T21:34:08.607Z,9.52
2022-09-28T21:36:36.662Z,9.45
2022-09-28T21:39:09.519Z,9.27
2022-09-28T21:41:39.673Z,9.20
2022-09-28T21:44:10.472Z,9.22
2022-09-28T21:46:39.636Z,9.21
2022-09-28T21:49:08.992Z,9.24
2022-09-28T21:51:38.023Z,9.18
2022-09-28T21:54:06.955Z,9.13
2022-09-28T21:56:35.611Z,9.16
2022-09-28T21:59:07.601Z,9.12
2022-09-28T22:01:35.627Z,9.12
2022-09-28T22:04:03.973Z,9.08
2022-09-28T22:06:31.753Z,9.08
2022-09-28T22:09:00.392Z,9.04
2022-09-28T22:11:30.171Z,9.00
2022-09-28T22:14:00.181Z,8.99
2022-09-28T22:16:31.804Z,8.94
2022-09-28T22:19:01.005Z,8.85
2022-09-28T22:21:31.903Z,8.82
2022-09-28T22:24:02.224Z,8.66
2022-09-28T22:26:32.781Z,8.68
2022-09-28T22:29:03.357Z,8.71
2022-09-28T22:31:35.164Z,8.72
2022-09-28T22:34:03.963Z,8.71
2022-09-28T22:36:32.296Z,8.73
2022-09-28T22:39:01.245Z,8.79
2022-09-28T22:41:29.986Z,8.81
2022-09-28T22:43:59.165Z,8.83
2022-09-28T22:46:28.683Z,8.80
2022-09-28T22:49:00.138Z,8.75
2022-09-28T22:51:30.440Z,8.71
2022-09-28T22:53:59.311Z,8.74
2022-09-28T22:56:27.369Z,8.77
2022-09-28T22:58:55.590Z,8.83
2022-09-28T23:01:25.197Z,8.74
2022-09-28T23:03:54.904Z,8.68
2022-09-28T23:06:25.971Z,8.68
2022-09-28T23:08:54.575Z,8.75
2022-09-28T23:11:22.772Z,8.74
2022-09-28T23:13:51.734Z,8.62
2022-09-28T23:16:20.927Z,8.51
2022-09-28T23:18:49.952Z,8.44
2022-09-28T23:21:20.135Z,8.40
2022-09-28T23:23:53.640Z,8.56
2022-09-28T23:26:22.614Z,8.65
2022-09-28T23:28:50.949Z,8.62
2022-09-28T23:31:21.541Z,8.57
2022-09-28T23:33:49.760Z,8.50
2022-09-28T23:36:18.759Z,8.50
2022-09-28T23:38:46.637Z,8.48
2022-09-28T23:41:15.902Z,8.39
2022-09-28T23:43:43.768Z,8.43
2022-09-28T23:46:11.912Z,8.43
2022-09-28T23:48:39.785Z,8.48
2022-09-28T23:51:07.951Z,8.45
2022-09-28T23:53:35.750Z,8.42
2022-09-28T23:56:04.067Z,8.51
2022-09-28T23:58:33.203Z,8.49
